Hlavní strana
METAR-TAF:

METAR-TAF

Letiště :

Kish, Írán

zeměpisná šířka: 26-31-36N, zeměpisná délka: 053-58-54E, výška: 30 m

Aktuální stav počasí

Zpráva byla vytvořena před 33 minutami, v 01:00 UTC
Bezvětří
Teplota 20°C
Vlhkost vzduchu 88%
Tlak 1018 hPa
Viditelnost: 8000 m
Skoro jasno ve výšce 3000 ft

METAR: OIBK 130100Z 00000KT 8000 FEW030 20/18 Q1018

Čas: 05:03 (01:33 UTC)

Předpověď počasí

Zpráva byla vytvořena před 2 hodinami a 13 minutami, v 23:20 UTC
Předpověď platná od 13 v 00 UTC do 14 v 06 UTC
Severozápadní vítr 8 kt
Viditelnost: 8000 m

TAF: OIBK 122320Z 1300/1406 32004MPS 8000 NSC

Stav a předpovědi počasí z více než 4 000 letišť (zprávy METAR a TAF).

Červené a žluté tečky na mapě představují dostupné meteorologické stanice.

Když kurzor umístíte na tečku, zobrazí se název stanice.

Pak kliknutím zobrazíte stav a předpověď počasí.

Chcete-li změnit mapu, kliknutím na zelené tlačítko se znaménkem +mapu přiblížíte, kliknutím na zelené tlačítko se znaménkem – mapu oddálíte a kliknutím na zelené šipky přejdete na sousední mapy.


METAR-TAF: